»·PEaware :: SWA2249 KPHX-KBOI

SWA2249 :: KPHX-KBOI

FLIGHT INFORMATION

Flight Status: Arrived
Operator:
Southwest Airlines
More flights by this operator :: More flights under this callsign
Pilot: Kevin M. (7)
Aircraft: BOEING 737-800
(B738)
More flights by this aircraft type
Origin: KPHX Phoenix Sky Harbor Intl
United States
Destination: KBOI Boise Air Terminal/Gowen
United States
More flights between these airports :: More routes between these airports
Route: QUAKY1 GCN BCE PATIO BROPH SPUUD3
File this flight plan on PilotEdge
Remarks:
Altitude:
(Current/Filed)
36,000ft
Speed:
(Current/Filed)
470kts
Departed: 13-Dec-18 11:12 AM
Arrived: 13-Dec-18 01:16 PM
Distance/Time
Traveled:
639nm/2:04
Distance/Time
To Go:
Arrived

Flight Plot

Page will automatically refresh every two minutes.

Flight plan parsing failed; only flown route is shown


Map Options




Map Legend


Flown Route
Filed Route
Departure Airport
Arrival Airport
Navaid (VOR, NDB)
Fix

Horizontal Profiles

Position Reports

Time Latitude Longitude Heading Altitude Ground
Speed
13-Dec-18 10:54 33.434053 -111.998732 292 1124ft 0kts
13-Dec-18 10:56 33.434053 -111.998732 292 1124ft 0kts
13-Dec-18 10:56 33.434053 -111.998732 292 1124ft 0kts
13-Dec-18 10:57 33.434053 -111.998732 292 1124ft 0kts
13-Dec-18 10:59 33.434053 -111.998732 292 1124ft 0kts
13-Dec-18 10:59 33.434053 -111.998732 292 1124ft 0kts
13-Dec-18 11:00 33.434053 -111.998732 292 1124ft 0kts
13-Dec-18 11:01 33.434053 -111.998732 292 1124ft 0kts
13-Dec-18 11:02 33.434053 -111.998732 292 1124ft 0kts
13-Dec-18 11:03 33.434010 -111.998609 292 1124ft 2kts
13-Dec-18 11:04 33.434201 -111.998249 178 1125ft 1kts
13-Dec-18 11:05 33.434215 -111.998250 179 1125ft 0kts
13-Dec-18 11:06 33.433576 -111.998244 179 1123ft 7kts
13-Dec-18 11:07 33.432153 -111.996476 88 1123ft 17kts
13-Dec-18 11:08 33.432145 -111.994265 91 1123ft 0kts
13-Dec-18 11:09 33.432145 -111.994265 91 1123ft 0kts
13-Dec-18 11:10 33.432057 -111.993573 116 1123ft 12kts
13-Dec-18 11:11 33.431035 -112.005006 270 1125ft 121kts
13-Dec-18 11:12 33.430273 -112.054321 267 2126ft 161kts
13-Dec-18 11:13 33.426989 -112.113636 270 3255ft 194kts
13-Dec-18 11:14 33.447359 -112.182379 316 4174ft 240kts
13-Dec-18 11:15 33.509385 -112.199611 3 6463ft 241kts
13-Dec-18 11:16 33.577619 -112.182506 15 8216ft 265kts
13-Dec-18 11:17 33.641404 -112.139660 43 10218ft 280kts
13-Dec-18 11:18 33.700134 -112.063656 44 10706ft 340kts
13-Dec-18 11:19 33.780009 -111.995669 12 11568ft 365kts
13-Dec-18 11:20 33.881783 -111.975206 7 12843ft 380kts
13-Dec-18 11:21 33.986489 -111.955378 7 14347ft 385kts
13-Dec-18 11:22 34.093193 -111.936048 1 15885ft 390kts
13-Dec-18 11:23 34.201231 -111.947450 354 17483ft 394kts
13-Dec-18 11:24 34.310743 -111.959711 354 19412ft 397kts
13-Dec-18 11:25 34.421025 -111.971950 354 21194ft 403kts
13-Dec-18 11:26 34.533330 -111.984379 353 22797ft 409kts
13-Dec-18 11:27 34.647450 -111.997023 353 24267ft 416kts
13-Dec-18 11:28 34.763323 -112.009893 353 25637ft 422kts
13-Dec-18 11:29 34.880389 -112.023045 353 26899ft 428kts
13-Dec-18 11:30 34.998597 -112.036379 353 28403ft 424kts
13-Dec-18 11:31 35.113531 -112.049359 353 29961ft 416kts
13-Dec-18 11:32 35.227400 -112.062254 353 31432ft 408kts
13-Dec-18 11:33 35.339046 -112.074945 352 32411ft 404kts
13-Dec-18 11:34 35.449985 -112.086478 353 32421ft 400kts
13-Dec-18 11:35 35.560503 -112.097792 352 32423ft 400kts
13-Dec-18 11:36 35.670843 -112.111064 352 32440ft 400kts
13-Dec-18 11:37 35.781294 -112.124356 352 32442ft 400kts
13-Dec-18 11:38 35.891564 -112.137642 352 32440ft 400kts
13-Dec-18 11:39 36.002379 -112.150042 353 32437ft 400kts
13-Dec-18 11:40 36.112652 -112.159855 353 32448ft 400kts
13-Dec-18 11:41 36.223508 -112.169831 353 32453ft 400kts
13-Dec-18 11:42 36.334199 -112.179920 353 32451ft 400kts
13-Dec-18 11:43 36.444649 -112.190010 353 32448ft 400kts
13-Dec-18 11:44 36.555678 -112.200152 353 32446ft 400kts
13-Dec-18 11:45 36.666256 -112.210255 353 32446ft 400kts
13-Dec-18 11:46 36.776925 -112.220367 353 32473ft 400kts
13-Dec-18 11:47 36.887656 -112.230485 353 32481ft 400kts
13-Dec-18 11:48 36.998476 -112.240606 353 32473ft 400kts
13-Dec-18 11:49 37.108334 -112.250634 352 32448ft 399kts
13-Dec-18 11:50 37.218644 -112.260725 352 32452ft 399kts
13-Dec-18 11:51 37.329326 -112.270843 352 32450ft 399kts
13-Dec-18 11:52 37.439491 -112.280912 352 32447ft 399kts
13-Dec-18 11:53 37.549815 -112.290995 352 32445ft 399kts
13-Dec-18 11:54 37.659985 -112.301065 352 32443ft 399kts
13-Dec-18 11:55 37.770615 -112.309010 354 32441ft 399kts
13-Dec-18 11:56 37.881332 -112.315859 354 32438ft 399kts
13-Dec-18 11:57 37.992201 -112.322949 354 32436ft 399kts
13-Dec-18 11:58 38.102206 -112.330002 354 32435ft 399kts
13-Dec-18 11:59 38.212722 -112.337085 354 32454ft 399kts
13-Dec-18 12:00 38.323427 -112.344185 354 32476ft 399kts
13-Dec-18 12:01 38.433754 -112.351260 354 32502ft 399kts
13-Dec-18 12:02 38.544272 -112.358348 354 32500ft 399kts
13-Dec-18 12:03 38.654915 -112.365445 354 32512ft 399kts
13-Dec-18 12:04 38.765589 -112.372544 354 32525ft 399kts
13-Dec-18 12:05 38.876013 -112.379627 353 32520ft 399kts
13-Dec-18 12:06 38.986830 -112.386726 353 32518ft 401kts
13-Dec-18 12:07 39.098005 -112.393870 352 32516ft 403kts
13-Dec-18 12:08 39.206429 -112.400828 352 32532ft 402kts
13-Dec-18 12:09 39.317839 -112.407979 352 32531ft 402kts
13-Dec-18 12:10 39.429054 -112.415116 352 32528ft 402kts
13-Dec-18 12:11 39.540740 -112.422285 352 32526ft 402kts
13-Dec-18 12:12 39.652081 -112.429435 352 32524ft 402kts
13-Dec-18 12:13 39.763799 -112.436604 352 32522ft 402kts
13-Dec-18 12:14 39.874931 -112.443738 352 32522ft 402kts
13-Dec-18 12:15 39.986303 -112.450888 352 32532ft 402kts
13-Dec-18 12:16 40.097608 -112.458034 352 32533ft 402kts
13-Dec-18 12:17 40.208795 -112.465171 352 32550ft 402kts
13-Dec-18 12:18 40.319832 -112.472300 352 32548ft 402kts
13-Dec-18 12:19 40.431335 -112.479460 352 32546ft 402kts
13-Dec-18 12:20 40.542670 -112.486609 352 32544ft 402kts
13-Dec-18 12:21 40.653985 -112.493757 353 32542ft 402kts
13-Dec-18 12:22 40.765493 -112.500919 353 32540ft 402kts
13-Dec-18 12:23 40.876658 -112.508057 353 32537ft 402kts
13-Dec-18 12:24 40.987973 -112.515201 352 32535ft 402kts
13-Dec-18 12:25 41.099858 -112.522377 351 32530ft 404kts
13-Dec-18 12:26 41.208657 -112.532606 342 32541ft 397kts
13-Dec-18 12:27 41.305097 -112.597759 319 32535ft 392kts
13-Dec-18 12:28 41.377605 -112.705590 312 32550ft 394kts
13-Dec-18 12:29 41.448447 -112.816147 312 32551ft 393kts
13-Dec-18 12:30 41.519769 -112.927709 311 32549ft 397kts
13-Dec-18 12:31 41.591356 -113.040133 311 32547ft 401kts
13-Dec-18 12:32 41.663582 -113.154041 311 32518ft 401kts
13-Dec-18 12:33 41.735351 -113.267658 311 32486ft 401kts
13-Dec-18 12:34 41.807303 -113.381983 311 32476ft 401kts
13-Dec-18 12:35 41.879003 -113.496307 311 32474ft 401kts
13-Dec-18 12:36 41.950452 -113.610727 311 32472ft 401kts
13-Dec-18 12:37 42.021501 -113.725223 310 32480ft 402kts
13-Dec-18 12:38 42.092669 -113.840375 310 32478ft 401kts
13-Dec-18 12:39 42.162859 -113.954289 310 32490ft 402kts
13-Dec-18 12:40 42.233868 -114.069914 310 32482ft 402kts
13-Dec-18 12:41 42.305016 -114.186158 310 32479ft 402kts
13-Dec-18 12:42 42.375846 -114.302304 310 32474ft 402kts
13-Dec-18 12:43 42.446720 -114.418987 310 32472ft 402kts
13-Dec-18 12:44 42.517625 -114.536199 310 31764ft 404kts
13-Dec-18 12:45 42.588145 -114.653247 309 30937ft 408kts
13-Dec-18 12:46 42.657023 -114.768295 309 30185ft 411kts
13-Dec-18 12:47 42.728310 -114.886925 312 29631ft 383kts
13-Dec-18 12:49 42.799090 -114.987658 313 29058ft 361kts
13-Dec-18 12:50 42.865950 -115.083657 312 27121ft 341kts
13-Dec-18 12:51 42.932456 -115.179621 311 25094ft 359kts
13-Dec-18 12:52 42.999357 -115.276622 310 22934ft 344kts
13-Dec-18 12:53 43.063623 -115.370172 310 20882ft 334kts
13-Dec-18 12:54 43.126077 -115.461424 310 18923ft 329kts
13-Dec-18 12:55 43.188374 -115.552650 311 16697ft 329kts
13-Dec-18 12:56 43.248892 -115.641364 311 15114ft 311kts
13-Dec-18 12:57 43.296129 -115.735076 294 13658ft 294kts
13-Dec-18 12:58 43.332044 -115.833745 296 12281ft 285kts
13-Dec-18 12:59 43.367573 -115.929012 294 10979ft 277kts
13-Dec-18 13:00 43.401528 -116.020817 294 10023ft 262kts
13-Dec-18 13:01 43.434374 -116.109637 293 8929ft 260kts
13-Dec-18 13:02 43.467192 -116.198305 293 7849ft 259kts
13-Dec-18 13:03 43.497044 -116.285078 294 7020ft 240kts
13-Dec-18 13:04 43.526953 -116.361406 295 7031ft 226kts
13-Dec-18 13:05 43.556728 -116.437727 295 7035ft 225kts
13-Dec-18 13:06 43.586463 -116.514143 295 5323ft 229kts
13-Dec-18 13:07 43.616012 -116.592079 295 5028ft 230kts
13-Dec-18 13:07 43.649956 -116.644892 349 5019ft 219kts
13-Dec-18 13:09 43.684130 -116.590165 102 5079ft 179kts
13-Dec-18 13:10 43.669981 -116.523158 120 5020ft 181kts
13-Dec-18 13:10 43.650423 -116.471748 123 5013ft 181kts
13-Dec-18 13:11 43.629927 -116.409380 113 4611ft 168kts
13-Dec-18 13:13 43.607272 -116.344501 126 4001ft 160kts
13-Dec-18 13:13 43.591379 -116.298473 120 3786ft 159kts
13-Dec-18 13:14 43.572613 -116.243800 118 2971ft 155kts
13-Dec-18 13:16 43.564429 -116.217209 351 2855ft 0kts
13-Dec-18 13:16 43.565989 -116.221185 290 2852ft 32kts
13-Dec-18 13:17 43.566527 -116.221877 108 2852ft 21kts
13-Dec-18 13:18 43.567159 -116.220644 24 2851ft 0kts
13-Dec-18 13:19 43.567159 -116.220644 24 2851ft 0kts

Navigation Log

Ident Type
Flight plan parsing failed, navigation log unavailable